sensor_id;sensor_type;location;lat;lon;timestamp;P1;durP1;ratioP1;P2;durP2;ratioP2
55993;SDS011;67425;52.126;20.638;2023-04-01T00:01:09;25.00;;;13.77;;
55993;SDS011;67425;52.126;20.638;2023-04-01T00:03:36;28.85;;;13.73;;
55993;SDS011;67425;52.126;20.638;2023-04-01T00:06:02;33.63;;;13.88;;
55993;SDS011;67425;52.126;20.638;2023-04-01T00:08:28;26.23;;;13.68;;
55993;SDS011;67425;52.126;20.638;2023-04-01T00:10:54;27.90;;;14.90;;
55993;SDS011;67425;52.126;20.638;2023-04-01T00:13:20;27.77;;;14.25;;
55993;SDS011;67425;52.126;20.638;2023-04-01T00:15:46;33.17;;;13.65;;
55993;SDS011;67425;52.126;20.638;2023-04-01T00:18:12;33.40;;;14.25;;
55993;SDS011;67425;52.126;20.638;2023-04-01T00:20:38;28.02;;;14.10;;
55993;SDS011;67425;52.126;20.638;2023-04-01T00:23:04;23.98;;;13.55;;
55993;SDS011;67425;52.126;20.638;2023-04-01T00:25:30;25.60;;;13.77;;
55993;SDS011;67425;52.126;20.638;2023-04-01T00:27:55;31.45;;;15.27;;
55993;SDS011;67425;52.126;20.638;2023-04-01T00:30:21;25.38;;;14.57;;
55993;SDS011;67425;52.126;20.638;2023-04-01T00:32:46;28.90;;;14.98;;
55993;SDS011;67425;52.126;20.638;2023-04-01T00:35:12;29.00;;;15.55;;
55993;SDS011;67425;52.126;20.638;2023-04-01T00:37:38;27.17;;;15.88;;
55993;SDS011;67425;52.126;20.638;2023-04-01T00:40:07;28.20;;;15.02;;
55993;SDS011;67425;52.126;20.638;2023-04-01T00:42:45;31.85;;;15.25;;
55993;SDS011;67425;52.126;20.638;2023-04-01T00:45:25;24.80;;;14.32;;
55993;SDS011;67425;52.126;20.638;2023-04-01T00:47:54;29.08;;;15.32;;
55993;SDS011;67425;52.126;20.638;2023-04-01T00:50:20;33.75;;;15.10;;
55993;SDS011;67425;52.126;20.638;2023-04-01T00:52:49;39.40;;;15.73;;
55993;SDS011;67425;52.126;20.638;2023-04-01T00:55:15;31.23;;;16.10;;
55993;SDS011;67425;52.126;20.638;2023-04-01T00:57:43;27.83;;;14.85;;
55993;SDS011;67425;52.126;20.638;2023-04-01T01:00:11;32.15;;;13.10;;
55993;SDS011;67425;52.126;20.638;2023-04-01T01:02:40;29.02;;;14.02;;
55993;SDS011;67425;52.126;20.638;2023-04-01T01:05:08;31.75;;;14.60;;
55993;SDS011;67425;52.126;20.638;2023-04-01T01:10:18;37.85;;;15.25;;
55993;SDS011;67425;52.126;20.638;2023-04-01T01:12:58;37.88;;;15.48;;
55993;SDS011;67425;52.126;20.638;2023-04-01T01:16:16;39.80;;;14.23;;
55993;SDS011;67425;52.126;20.638;2023-04-01T01:18:42;28.95;;;15.00;;
55993;SDS011;67425;52.126;20.638;2023-04-01T01:21:39;30.88;;;15.43;;
55993;SDS011;67425;52.126;20.638;2023-04-01T01:24:28;32.53;;;15.55;;
55993;SDS011;67425;52.126;20.638;2023-04-01T01:29:49;31.88;;;14.35;;
55993;SDS011;67425;52.126;20.638;2023-04-01T01:35:15;33.13;;;16.00;;
55993;SDS011;67425;52.126;20.638;2023-04-01T01:37:42;31.58;;;16.73;;
55993;SDS011;67425;52.126;20.638;2023-04-01T01:40:10;31.25;;;15.48;;
55993;SDS011;67425;52.126;20.638;2023-04-01T01:42:39;34.25;;;16.23;;
55993;SDS011;67425;52.126;20.638;2023-04-01T01:45:08;27.75;;;16.23;;
55993;SDS011;67425;52.126;20.638;2023-04-01T01:47:37;29.95;;;15.93;;
55993;SDS011;67425;52.126;20.638;2023-04-01T01:50:05;33.05;;;15.93;;
55993;SDS011;67425;52.126;20.638;2023-04-01T01:52:32;26.92;;;15.55;;
55993;SDS011;67425;52.126;20.638;2023-04-01T01:54:57;26.52;;;15.48;;
55993;SDS011;67425;52.126;20.638;2023-04-01T01:57:24;30.83;;;16.17;;
55993;SDS011;67425;52.126;20.638;2023-04-01T01:59:54;29.60;;;15.75;;
55993;SDS011;67425;52.126;20.638;2023-04-01T02:02:25;28.50;;;15.63;;
55993;SDS011;67425;52.126;20.638;2023-04-01T02:04:52;27.08;;;15.63;;
55993;SDS011;67425;52.126;20.638;2023-04-01T02:07:29;31.90;;;16.88;;
55993;SDS011;67425;52.126;20.638;2023-04-01T02:09:58;28.25;;;16.00;;
55993;SDS011;67425;52.126;20.638;2023-04-01T02:12:24;45.83;;;18.05;;
55993;SDS011;67425;52.126;20.638;2023-04-01T02:15:00;36.20;;;17.63;;
55993;SDS011;67425;52.126;20.638;2023-04-01T02:17:32;30.45;;;16.73;;
55993;SDS011;67425;52.126;20.638;2023-04-01T02:20:00;33.38;;;16.35;;
55993;SDS011;67425;52.126;20.638;2023-04-01T02:22:34;34.13;;;16.13;;
55993;SDS011;67425;52.126;20.638;2023-04-01T02:25:08;33.83;;;16.63;;
55993;SDS011;67425;52.126;20.638;2023-04-01T02:27:40;29.40;;;16.65;;
55993;SDS011;67425;52.126;20.638;2023-04-01T02:30:08;31.75;;;15.70;;
55993;SDS011;67425;52.126;20.638;2023-04-01T02:32:34;30.98;;;15.98;;
55993;SDS011;67425;52.126;20.638;2023-04-01T02:35:03;32.78;;;16.60;;
55993;SDS011;67425;52.126;20.638;2023-04-01T02:37:34;32.92;;;16.27;;
55993;SDS011;67425;52.126;20.638;2023-04-01T02:40:00;30.48;;;16.23;;
55993;SDS011;67425;52.126;20.638;2023-04-01T02:42:27;36.42;;;16.05;;
55993;SDS011;67425;52.126;20.638;2023-04-01T02:44:52;31.70;;;16.52;;
55993;SDS011;67425;52.126;20.638;2023-04-01T02:47:17;28.30;;;15.55;;
55993;SDS011;67425;52.126;20.638;2023-04-01T02:49:43;25.77;;;15.55;;
55993;SDS011;67425;52.126;20.638;2023-04-01T02:52:08;33.35;;;16.17;;
55993;SDS011;67425;52.126;20.638;2023-04-01T02:54:33;39.95;;;15.80;;
55993;SDS011;67425;52.126;20.638;2023-04-01T02:56:59;40.22;;;16.77;;
55993;SDS011;67425;52.126;20.638;2023-04-01T02:59:24;28.35;;;15.80;;
55993;SDS011;67425;52.126;20.638;2023-04-01T03:01:50;27.98;;;15.43;;
55993;SDS011;67425;52.126;20.638;2023-04-01T03:04:15;31.20;;;15.68;;
55993;SDS011;67425;52.126;20.638;2023-04-01T03:06:40;24.85;;;15.23;;
55993;SDS011;67425;52.126;20.638;2023-04-01T03:09:06;25.85;;;15.13;;
55993;SDS011;67425;52.126;20.638;2023-04-01T03:11:31;25.90;;;14.50;;
55993;SDS011;67425;52.126;20.638;2023-04-01T03:13:56;26.33;;;14.40;;
55993;SDS011;67425;52.126;20.638;2023-04-01T03:16:22;26.77;;;14.77;;
55993;SDS011;67425;52.126;20.638;2023-04-01T03:18:47;24.73;;;14.75;;
55993;SDS011;67425;52.126;20.638;2023-04-01T03:21:15;24.98;;;14.85;;
55993;SDS011;67425;52.126;20.638;2023-04-01T03:23:42;30.52;;;15.43;;
55993;SDS011;67425;52.126;20.638;2023-04-01T03:26:08;21.67;;;13.23;;
55993;SDS011;67425;52.126;20.638;2023-04-01T03:28:33;28.88;;;14.55;;
55993;SDS011;67425;52.126;20.638;2023-04-01T03:30:59;29.95;;;14.13;;
55993;SDS011;67425;52.126;20.638;2023-04-01T03:33:24;23.83;;;13.48;;
55993;SDS011;67425;52.126;20.638;2023-04-01T03:35:50;23.45;;;12.75;;
55993;SDS011;67425;52.126;20.638;2023-04-01T03:38:17;18.48;;;12.18;;
55993;SDS011;67425;52.126;20.638;2023-04-01T03:40:43;24.35;;;12.23;;
55993;SDS011;67425;52.126;20.638;2023-04-01T03:43:09;23.63;;;11.52;;
55993;SDS011;67425;52.126;20.638;2023-04-01T03:45:35;21.73;;;11.68;;
55993;SDS011;67425;52.126;20.638;2023-04-01T03:48:00;21.92;;;11.23;;
55993;SDS011;67425;52.126;20.638;2023-04-01T03:50:26;21.80;;;11.90;;
55993;SDS011;67425;52.126;20.638;2023-04-01T03:52:51;24.73;;;11.15;;
55993;SDS011;67425;52.126;20.638;2023-04-01T03:55:17;18.00;;;10.77;;
55993;SDS011;67425;52.126;20.638;2023-04-01T03:57:43;20.65;;;9.95;;
55993;SDS011;67425;52.126;20.638;2023-04-01T04:00:08;22.20;;;9.98;;
55993;SDS011;67425;52.126;20.638;2023-04-01T04:02:34;20.58;;;10.20;;
55993;SDS011;67425;52.126;20.638;2023-04-01T04:05:00;14.25;;;9.32;;
55993;SDS011;67425;52.126;20.638;2023-04-01T04:07:26;13.20;;;8.32;;
55993;SDS011;67425;52.126;20.638;2023-04-01T04:09:51;15.85;;;9.38;;
55993;SDS011;67425;52.126;20.638;2023-04-01T04:12:16;14.18;;;9.18;;
55993;SDS011;67425;52.126;20.638;2023-04-01T04:14:42;15.43;;;9.55;;
55993;SDS011;67425;52.126;20.638;2023-04-01T04:17:09;19.58;;;9.52;;
55993;SDS011;67425;52.126;20.638;2023-04-01T04:19:38;18.30;;;9.38;;
55993;SDS011;67425;52.126;20.638;2023-04-01T04:22:04;15.77;;;8.38;;
55993;SDS011;67425;52.126;20.638;2023-04-01T04:24:29;16.88;;;9.75;;
55993;SDS011;67425;52.126;20.638;2023-04-01T04:26:54;12.48;;;9.32;;
55993;SDS011;67425;52.126;20.638;2023-04-01T04:29:20;17.45;;;9.23;;
55993;SDS011;67425;52.126;20.638;2023-04-01T04:31:45;17.13;;;9.63;;
55993;SDS011;67425;52.126;20.638;2023-04-01T04:34:11;18.30;;;9.57;;
55993;SDS011;67425;52.126;20.638;2023-04-01T04:36:36;14.25;;;9.35;;
55993;SDS011;67425;52.126;20.638;2023-04-01T04:39:01;16.80;;;9.80;;
55993;SDS011;67425;52.126;20.638;2023-04-01T04:41:28;19.73;;;9.93;;
55993;SDS011;67425;52.126;20.638;2023-04-01T04:43:54;12.05;;;9.45;;
55993;SDS011;67425;52.126;20.638;2023-04-01T04:46:21;21.13;;;10.27;;
55993;SDS011;67425;52.126;20.638;2023-04-01T04:48:47;16.85;;;10.93;;
55993;SDS011;67425;52.126;20.638;2023-04-01T04:51:14;20.67;;;10.35;;
55993;SDS011;67425;52.126;20.638;2023-04-01T04:53:41;18.02;;;10.40;;
55993;SDS011;67425;52.126;20.638;2023-04-01T04:56:06;14.68;;;9.35;;
55993;SDS011;67425;52.126;20.638;2023-04-01T04:58:32;18.02;;;10.15;;
55993;SDS011;67425;52.126;20.638;2023-04-01T05:00:57;14.45;;;9.10;;
55993;SDS011;67425;52.126;20.638;2023-04-01T05:03:22;19.85;;;9.65;;
55993;SDS011;67425;52.126;20.638;2023-04-01T05:05:52;18.77;;;10.90;;
55993;SDS011;67425;52.126;20.638;2023-04-01T05:08:18;17.23;;;11.00;;
55993;SDS011;67425;52.126;20.638;2023-04-01T05:10:43;20.85;;;12.05;;
55993;SDS011;67425;52.126;20.638;2023-04-01T05:13:09;18.35;;;12.43;;
55993;SDS011;67425;52.126;20.638;2023-04-01T05:15:35;25.23;;;12.82;;
55993;SDS011;67425;52.126;20.638;2023-04-01T05:18:02;25.38;;;13.20;;
55993;SDS011;67425;52.126;20.638;2023-04-01T05:20:28;25.15;;;13.43;;
55993;SDS011;67425;52.126;20.638;2023-04-01T05:22:56;23.23;;;12.02;;
55993;SDS011;67425;52.126;20.638;2023-04-01T05:25:23;24.92;;;13.82;;
55993;SDS011;67425;52.126;20.638;2023-04-01T05:27:48;24.13;;;13.65;;
55993;SDS011;67425;52.126;20.638;2023-04-01T05:30:13;22.67;;;14.02;;
55993;SDS011;67425;52.126;20.638;2023-04-01T05:32:39;23.73;;;13.88;;
55993;SDS011;67425;52.126;20.638;2023-04-01T05:35:04;25.23;;;13.98;;
55993;SDS011;67425;52.126;20.638;2023-04-01T05:37:30;26.23;;;14.02;;
55993;SDS011;67425;52.126;20.638;2023-04-01T05:39:57;31.92;;;15.18;;
55993;SDS011;67425;52.126;20.638;2023-04-01T05:42:23;24.65;;;14.45;;
55993;SDS011;67425;52.126;20.638;2023-04-01T05:44:49;24.33;;;14.48;;
55993;SDS011;67425;52.126;20.638;2023-04-01T05:47:14;27.33;;;14.40;;
55993;SDS011;67425;52.126;20.638;2023-04-01T05:49:39;27.40;;;14.95;;
55993;SDS011;67425;52.126;20.638;2023-04-01T05:52:05;26.13;;;15.32;;
55993;SDS011;67425;52.126;20.638;2023-04-01T05:54:30;27.17;;;14.98;;
55993;SDS011;67425;52.126;20.638;2023-04-01T05:56:55;29.15;;;15.48;;
55993;SDS011;67425;52.126;20.638;2023-04-01T05:59:20;26.60;;;15.55;;
55993;SDS011;67425;52.126;20.638;2023-04-01T06:01:46;32.00;;;16.75;;
55993;SDS011;67425;52.126;20.638;2023-04-01T06:04:14;24.83;;;15.73;;
55993;SDS011;67425;52.126;20.638;2023-04-01T06:06:41;29.58;;;16.80;;
55993;SDS011;67425;52.126;20.638;2023-04-01T06:09:10;30.67;;;15.38;;
55993;SDS011;67425;52.126;20.638;2023-04-01T06:14:52;24.88;;;15.82;;
55993;SDS011;67425;52.126;20.638;2023-04-01T06:20:19;26.55;;;14.98;;
55993;SDS011;67425;52.126;20.638;2023-04-01T06:23:09;26.33;;;15.32;;
55993;SDS011;67425;52.126;20.638;2023-04-01T06:42:52;30.15;;;17.13;;
55993;SDS011;67425;52.126;20.638;2023-04-01T06:45:36;28.65;;;17.15;;
55993;SDS011;67425;52.126;20.638;2023-04-01T06:53:48;26.58;;;17.15;;
55993;SDS011;67425;52.126;20.638;2023-04-01T06:56:25;41.00;;;19.48;;
55993;SDS011;67425;52.126;20.638;2023-04-01T06:58:54;27.33;;;16.45;;
55993;SDS011;67425;52.126;20.638;2023-04-01T07:01:26;32.90;;;17.23;;
55993;SDS011;67425;52.126;20.638;2023-04-01T07:07:05;29.25;;;16.67;;
55993;SDS011;67425;52.126;20.638;2023-04-01T07:09:40;29.33;;;16.55;;
55993;SDS011;67425;52.126;20.638;2023-04-01T07:12:43;24.63;;;15.98;;
55993;SDS011;67425;52.126;20.638;2023-04-01T07:15:20;28.25;;;17.15;;
55993;SDS011;67425;52.126;20.638;2023-04-01T07:17:54;27.90;;;16.67;;
55993;SDS011;67425;52.126;20.638;2023-04-01T07:20:28;27.50;;;16.17;;
55993;SDS011;67425;52.126;20.638;2023-04-01T07:23:00;24.80;;;14.45;;
55993;SDS011;67425;52.126;20.638;2023-04-01T07:25:39;26.50;;;16.27;;
55993;SDS011;67425;52.126;20.638;2023-04-01T07:28:12;23.55;;;15.15;;
55993;SDS011;67425;52.126;20.638;2023-04-01T07:30:58;28.15;;;15.98;;
55993;SDS011;67425;52.126;20.638;2023-04-01T07:33:57;29.00;;;16.95;;
55993;SDS011;67425;52.126;20.638;2023-04-01T07:39:26;25.88;;;16.08;;
55993;SDS011;67425;52.126;20.638;2023-04-01T07:42:05;34.05;;;18.33;;
55993;SDS011;67425;52.126;20.638;2023-04-01T07:50:13;33.25;;;18.35;;
55993;SDS011;67425;52.126;20.638;2023-04-01T07:53:05;29.40;;;16.48;;
55993;SDS011;67425;52.126;20.638;2023-04-01T08:09:25;44.47;;;17.02;;
55993;SDS011;67425;52.126;20.638;2023-04-01T08:25:37;23.60;;;14.52;;
55993;SDS011;67425;52.126;20.638;2023-04-01T08:30:38;24.75;;;14.25;;
55993;SDS011;67425;52.126;20.638;2023-04-01T08:33:14;23.70;;;12.88;;
55993;SDS011;67425;52.126;20.638;2023-04-01T08:35:48;24.48;;;12.68;;
55993;SDS011;67425;52.126;20.638;2023-04-01T08:38:26;23.05;;;13.63;;
55993;SDS011;67425;52.126;20.638;2023-04-01T08:50:06;14.82;;;6.85;;
55993;SDS011;67425;52.126;20.638;2023-04-01T08:52:41;12.43;;;8.10;;
55993;SDS011;67425;52.126;20.638;2023-04-01T08:55:47;21.08;;;11.23;;
55993;SDS011;67425;52.126;20.638;2023-04-01T09:06:35;38.25;;;19.30;;
55993;SDS011;67425;52.126;20.638;2023-04-01T09:17:36;18.45;;;10.63;;
55993;SDS011;67425;52.126;20.638;2023-04-01T09:26:13;37.55;;;17.05;;
55993;SDS011;67425;52.126;20.638;2023-04-01T09:29:13;9.65;;;6.68;;
55993;SDS011;67425;52.126;20.638;2023-04-01T09:34:53;26.20;;;13.70;;
55993;SDS011;67425;52.126;20.638;2023-04-01T09:43:00;47.65;;;23.85;;
55993;SDS011;67425;52.126;20.638;2023-04-01T09:48:30;26.65;;;7.75;;
55993;SDS011;67425;52.126;20.638;2023-04-01T09:54:10;8.85;;;5.45;;
55993;SDS011;67425;52.126;20.638;2023-04-01T09:56:53;5.80;;;5.17;;
55993;SDS011;67425;52.126;20.638;2023-04-01T09:59:49;6.05;;;5.25;;
55993;SDS011;67425;52.126;20.638;2023-04-01T10:11:00;10.45;;;5.70;;
55993;SDS011;67425;52.126;20.638;2023-04-01T10:13:36;12.10;;;5.82;;
55993;SDS011;67425;52.126;20.638;2023-04-01T10:22:08;15.02;;;7.82;;
55993;SDS011;67425;52.126;20.638;2023-04-01T10:24:55;14.07;;;7.45;;
55993;SDS011;67425;52.126;20.638;2023-04-01T10:55:47;4.80;;;3.10;;
55993;SDS011;67425;52.126;20.638;2023-04-01T11:11:37;6.40;;;4.97;;
55993;SDS011;67425;52.126;20.638;2023-04-01T11:20:15;10.93;;;6.85;;
55993;SDS011;67425;52.126;20.638;2023-04-01T11:33:23;8.00;;;6.53;;
55993;SDS011;67425;52.126;20.638;2023-04-01T11:36:49;14.60;;;8.75;;
55993;SDS011;67425;52.126;20.638;2023-04-01T11:39:21;12.85;;;7.50;;
55993;SDS011;67425;52.126;20.638;2023-04-01T11:42:30;17.77;;;8.40;;
55993;SDS011;67425;52.126;20.638;2023-04-01T11:53:44;8.73;;;5.35;;
55993;SDS011;67425;52.126;20.638;2023-04-01T12:01:49;6.57;;;5.38;;
55993;SDS011;67425;52.126;20.638;2023-04-01T12:18:06;10.18;;;7.13;;
55993;SDS011;67425;52.126;20.638;2023-04-01T12:26:39;17.90;;;7.72;;
55993;SDS011;67425;52.126;20.638;2023-04-01T12:50:31;8.27;;;6.18;;
55993;SDS011;67425;52.126;20.638;2023-04-01T12:55:50;9.95;;;6.45;;
55993;SDS011;67425;52.126;20.638;2023-04-01T13:01:10;7.55;;;5.60;;
55993;SDS011;67425;52.126;20.638;2023-04-01T13:09:15;8.52;;;7.10;;
55993;SDS011;67425;52.126;20.638;2023-04-01T13:15:22;10.95;;;7.00;;
55993;SDS011;67425;52.126;20.638;2023-04-01T13:18:11;7.30;;;6.43;;
55993;SDS011;67425;52.126;20.638;2023-04-01T13:21:31;4.87;;;4.43;;
55993;SDS011;67425;52.126;20.638;2023-04-01T13:29:13;3.30;;;2.50;;
55993;SDS011;67425;52.126;20.638;2023-04-01T13:37:13;5.13;;;2.20;;
55993;SDS011;67425;52.126;20.638;2023-04-01T13:42:21;4.00;;;1.70;;
55993;SDS011;67425;52.126;20.638;2023-04-01T13:44:56;3.42;;;2.90;;
55993;SDS011;67425;52.126;20.638;2023-04-01T13:50:18;2.13;;;2.03;;
55993;SDS011;67425;52.126;20.638;2023-04-01T14:03:42;1.43;;;1.33;;
55993;SDS011;67425;52.126;20.638;2023-04-01T14:11:34;3.05;;;1.48;;
55993;SDS011;67425;52.126;20.638;2023-04-01T14:14:22;2.03;;;1.40;;
55993;SDS011;67425;52.126;20.638;2023-04-01T14:30:48;8.23;;;1.85;;
55993;SDS011;67425;52.126;20.638;2023-04-01T14:41:31;2.65;;;2.45;;
55993;SDS011;67425;52.126;20.638;2023-04-01T14:50:13;2.00;;;1.90;;
55993;SDS011;67425;52.126;20.638;2023-04-01T14:55:51;1.45;;;1.00;;
55993;SDS011;67425;52.126;20.638;2023-04-01T14:58:20;1.90;;;1.80;;
55993;SDS011;67425;52.126;20.638;2023-04-01T15:00:54;4.35;;;2.45;;
55993;SDS011;67425;52.126;20.638;2023-04-01T15:11:43;2.47;;;1.90;;
55993;SDS011;67425;52.126;20.638;2023-04-01T15:14:17;1.80;;;1.70;;
55993;SDS011;67425;52.126;20.638;2023-04-01T15:22:32;1.47;;;1.37;;
55993;SDS011;67425;52.126;20.638;2023-04-01T15:28:04;1.52;;;1.40;;
55993;SDS011;67425;52.126;20.638;2023-04-01T15:33:29;1.00;;;1.00;;
55993;SDS011;67425;52.126;20.638;2023-04-01T15:50:42;3.20;;;2.55;;
55993;SDS011;67425;52.126;20.638;2023-04-01T15:53:15;2.80;;;1.77;;
55993;SDS011;67425;52.126;20.638;2023-04-01T15:58:54;3.67;;;2.05;;
55993;SDS011;67425;52.126;20.638;2023-04-01T16:07:27;3.92;;;2.20;;
55993;SDS011;67425;52.126;20.638;2023-04-01T16:15:52;6.80;;;4.45;;
55993;SDS011;67425;52.126;20.638;2023-04-01T16:21:19;7.05;;;3.80;;
55993;SDS011;67425;52.126;20.638;2023-04-01T16:23:59;2.45;;;2.25;;
55993;SDS011;67425;52.126;20.638;2023-04-01T16:26:39;7.63;;;4.32;;
55993;SDS011;67425;52.126;20.638;2023-04-01T16:29:17;8.07;;;3.92;;
55993;SDS011;67425;52.126;20.638;2023-04-01T16:32:10;4.50;;;3.28;;
55993;SDS011;67425;52.126;20.638;2023-04-01T16:37:39;3.05;;;2.20;;
55993;SDS011;67425;52.126;20.638;2023-04-01T16:46:40;7.82;;;3.10;;
55993;SDS011;67425;52.126;20.638;2023-04-01T16:57:21;4.40;;;3.65;;
55993;SDS011;67425;52.126;20.638;2023-04-01T17:02:33;1.23;;;1.02;;
55993;SDS011;67425;52.126;20.638;2023-04-01T17:05:08;3.70;;;3.30;;
55993;SDS011;67425;52.126;20.638;2023-04-01T17:10:29;7.50;;;2.47;;
55993;SDS011;67425;52.126;20.638;2023-04-01T17:23:33;3.70;;;2.53;;
55993;SDS011;67425;52.126;20.638;2023-04-01T17:28:57;3.78;;;2.53;;
55993;SDS011;67425;52.126;20.638;2023-04-01T17:32:31;3.85;;;3.20;;
55993;SDS011;67425;52.126;20.638;2023-04-01T17:45:49;1.98;;;1.88;;
55993;SDS011;67425;52.126;20.638;2023-04-01T17:48:24;4.43;;;2.42;;
55993;SDS011;67425;52.126;20.638;2023-04-01T17:56:59;2.78;;;2.55;;
55993;SDS011;67425;52.126;20.638;2023-04-01T17:59:49;3.53;;;2.22;;
55993;SDS011;67425;52.126;20.638;2023-04-01T18:02:47;4.32;;;2.22;;
55993;SDS011;67425;52.126;20.638;2023-04-01T18:05:43;2.65;;;2.45;;
55993;SDS011;67425;52.126;20.638;2023-04-01T18:11:13;4.82;;;2.17;;
55993;SDS011;67425;52.126;20.638;2023-04-01T18:19:32;7.35;;;2.38;;
55993;SDS011;67425;52.126;20.638;2023-04-01T18:27:38;5.32;;;3.72;;
55993;SDS011;67425;52.126;20.638;2023-04-01T18:35:47;10.50;;;4.28;;
55993;SDS011;67425;52.126;20.638;2023-04-01T18:38:13;5.45;;;3.20;;
55993;SDS011;67425;52.126;20.638;2023-04-01T18:40:43;3.53;;;3.22;;
55993;SDS011;67425;52.126;20.638;2023-04-01T18:46:12;4.63;;;2.95;;
55993;SDS011;67425;52.126;20.638;2023-04-01T18:51:39;7.60;;;4.72;;
55993;SDS011;67425;52.126;20.638;2023-04-01T18:57:16;4.43;;;3.47;;
55993;SDS011;67425;52.126;20.638;2023-04-01T19:05:07;9.10;;;4.75;;
55993;SDS011;67425;52.126;20.638;2023-04-01T19:10:13;7.90;;;4.45;;
55993;SDS011;67425;52.126;20.638;2023-04-01T19:12:44;6.57;;;5.55;;
55993;SDS011;67425;52.126;20.638;2023-04-01T19:17:47;6.40;;;3.70;;
55993;SDS011;67425;52.126;20.638;2023-04-01T19:26:01;7.90;;;5.32;;
55993;SDS011;67425;52.126;20.638;2023-04-01T19:31:33;5.15;;;4.28;;
55993;SDS011;67425;52.126;20.638;2023-04-01T19:36:54;10.82;;;4.80;;
55993;SDS011;67425;52.126;20.638;2023-04-01T19:39:27;7.28;;;5.13;;
55993;SDS011;67425;52.126;20.638;2023-04-01T19:45:04;11.70;;;7.57;;
55993;SDS011;67425;52.126;20.638;2023-04-01T19:47:39;6.18;;;4.35;;
55993;SDS011;67425;52.126;20.638;2023-04-01T19:56:19;7.30;;;5.22;;
55993;SDS011;67425;52.126;20.638;2023-04-01T20:01:24;6.05;;;4.65;;
55993;SDS011;67425;52.126;20.638;2023-04-01T20:04:22;3.60;;;3.28;;
55993;SDS011;67425;52.126;20.638;2023-04-01T20:18:35;7.28;;;4.20;;
55993;SDS011;67425;52.126;20.638;2023-04-01T20:21:06;10.30;;;5.90;;
55993;SDS011;67425;52.126;20.638;2023-04-01T20:23:49;6.85;;;5.00;;
55993;SDS011;67425;52.126;20.638;2023-04-01T20:26:24;11.63;;;5.50;;
55993;SDS011;67425;52.126;20.638;2023-04-01T20:29:07;26.30;;;13.52;;
55993;SDS011;67425;52.126;20.638;2023-04-01T20:37:15;14.30;;;8.02;;
55993;SDS011;67425;52.126;20.638;2023-04-01T20:39:48;4.13;;;3.55;;
55993;SDS011;67425;52.126;20.638;2023-04-01T20:50:57;6.03;;;4.75;;
55993;SDS011;67425;52.126;20.638;2023-04-01T20:53:35;10.20;;;5.95;;
55993;SDS011;67425;52.126;20.638;2023-04-01T20:58:49;3.35;;;2.90;;
55993;SDS011;67425;52.126;20.638;2023-04-01T21:01:29;6.78;;;5.50;;
55993;SDS011;67425;52.126;20.638;2023-04-01T21:18:30;6.85;;;4.97;;
55993;SDS011;67425;52.126;20.638;2023-04-01T21:21:15;5.72;;;3.95;;
55993;SDS011;67425;52.126;20.638;2023-04-01T21:26:50;8.57;;;5.03;;
55993;SDS011;67425;52.126;20.638;2023-04-01T21:29:32;3.70;;;3.17;;
55993;SDS011;67425;52.126;20.638;2023-04-01T21:37:57;3.95;;;3.63;;
55993;SDS011;67425;52.126;20.638;2023-04-01T22:05:28;2.10;;;1.98;;
55993;SDS011;67425;52.126;20.638;2023-04-01T22:07:59;4.82;;;2.35;;
55993;SDS011;67425;52.126;20.638;2023-04-01T22:10:33;2.75;;;2.55;;
55993;SDS011;67425;52.126;20.638;2023-04-01T22:13:10;3.05;;;2.40;;
55993;SDS011;67425;52.126;20.638;2023-04-01T22:30:24;5.25;;;3.45;;
55993;SDS011;67425;52.126;20.638;2023-04-01T22:33:30;4.22;;;3.25;;
55993;SDS011;67425;52.126;20.638;2023-04-01T22:35:59;6.30;;;3.60;;
55993;SDS011;67425;52.126;20.638;2023-04-01T22:41:28;3.83;;;3.50;;
55993;SDS011;67425;52.126;20.638;2023-04-01T22:44:14;4.20;;;3.15;;
55993;SDS011;67425;52.126;20.638;2023-04-01T22:47:08;6.03;;;4.32;;
55993;SDS011;67425;52.126;20.638;2023-04-01T22:49:47;6.97;;;3.22;;
55993;SDS011;67425;52.126;20.638;2023-04-01T22:52:33;5.35;;;4.07;;
55993;SDS011;67425;52.126;20.638;2023-04-01T22:55:10;5.82;;;4.55;;
55993;SDS011;67425;52.126;20.638;2023-04-01T23:00:38;3.42;;;3.13;;
55993;SDS011;67425;52.126;20.638;2023-04-01T23:06:05;6.38;;;4.40;;
55993;SDS011;67425;52.126;20.638;2023-04-01T23:08:52;6.90;;;3.75;;
55993;SDS011;67425;52.126;20.638;2023-04-01T23:17:07;3.38;;;3.10;;
55993;SDS011;67425;52.126;20.638;2023-04-01T23:22:29;6.35;;;4.15;;
55993;SDS011;67425;52.126;20.638;2023-04-01T23:27:53;5.40;;;3.90;;
55993;SDS011;67425;52.126;20.638;2023-04-01T23:35:56;4.88;;;3.80;;
55993;SDS011;67425;52.126;20.638;2023-04-01T23:38:30;6.45;;;4.20;;
55993;SDS011;67425;52.126;20.638;2023-04-01T23:40:58;4.28;;;3.72;;
55993;SDS011;67425;52.126;20.638;2023-04-01T23:43:25;6.63;;;3.90;;
55993;SDS011;67425;52.126;20.638;2023-04-01T23:45:54;6.90;;;4.97;;
55993;SDS011;67425;52.126;20.638;2023-04-01T23:48:22;8.82;;;5.70;;
55993;SDS011;67425;52.126;20.638;2023-04-01T23:50:52;6.97;;;4.30;;
55993;SDS011;67425;52.126;20.638;2023-04-01T23:53:20;4.47;;;3.72;;
55993;SDS011;67425;52.126;20.638;2023-04-01T23:55:49;5.85;;;4.15;;
55993;SDS011;67425;52.126;20.638;2023-04-01T23:58:27;5.22;;;1.73;;
